WetterOnline ( https://www.wetteronline.de )

Wetter aktuell Zinnowitz

Aktuelles Wetter: Greifswalder Oie (12m)

6-stündlich | Neueste Meldungen
Ortszeit Temperatur Wetter
Di, 26.05. 20:00 12.1° C wolkenlos
Di, 26.05. 14:00 12.2° C leicht bewölkt
Di, 26.05. 8:00 9.2° C bedeckt
Di, 26.05. 2:00 10.1° C wolkenlos
Mo, 25.05. 20:00 13.1° C wolkenlos
Mo, 25.05. 14:00 14.3° C leicht bewölkt
Mo, 25.05. 8:00 11.5° C bedeckt
Mo, 25.05. 2:00 11.1° C Sprühregen
Ortszeit Temperatur Wetter
Di, 26.05. 23:30 10.9° C fast wolkenlos
Di, 26.05. 23:20 10.9° C fast wolkenlos
Di, 26.05. 23:10 11.0° C fast wolkenlos
Di, 26.05. 23:00 10.7° C leicht bewölkt
Di, 26.05. 22:50 10.7° C leicht bewölkt
Di, 26.05. 22:40 10.8° C wolkenlos
Di, 26.05. 22:30 11.0° C wolkenlos
Di, 26.05. 22:00 10.8° C wolkenlos
Di, 26.05. 21:30 11.0° C wolkenlos
Di, 26.05. 21:00 11.2° C fast wolkenlos
Di, 26.05. 20:30 11.7° C wolkenlos
Di, 26.05. 20:00 12.1° C wolkenlos
Ortszeit Relative Feuchte Sichtweite
Di, 26.05. 20:00 81% 35 km
Di, 26.05. 14:00 78% 40 km
Di, 26.05. 8:00 97% 10 km
Di, 26.05. 2:00 97% 5.0 km
Mo, 25.05. 20:00 81% 26 km
Mo, 25.05. 14:00 79% 22 km
Mo, 25.05. 8:00 90% 35 km
Mo, 25.05. 2:00 89% 7 km
Ortszeit Relative Feuchte Sichtweite
Di, 26.05. 23:30 86% 40 km
Di, 26.05. 23:20 86% -
Di, 26.05. 23:10 87% -
Di, 26.05. 23:00 87% 40 km
Di, 26.05. 22:50 87% -
Di, 26.05. 22:40 87% -
Di, 26.05. 22:30 87% 35 km
Di, 26.05. 22:00 86% 45 km
Di, 26.05. 21:30 87% 40 km
Di, 26.05. 21:00 85% 45 km
Di, 26.05. 20:30 81% 45 km
Di, 26.05. 20:00 81% 35 km
Ortszeit Niederschlagsmenge Niederschlagsart
Di, 26.05. 20:00 0.0 l/m2 in 12 Std. -
Di, 26.05. 14:00 0.0 l/m2 in 6 Std. -
Di, 26.05. 8:00 0.1 l/m2 in 12 Std. -
Di, 26.05. 2:00 0.0 l/m2 in 6 Std. -
Mo, 25.05. 20:00 0.1 l/m2 in 12 Std. -
Mo, 25.05. 14:00 0.1 l/m2 in 6 Std. Sprühregen
Mo, 25.05. 8:00 0.2 l/m2 in 12 Std. Regen
Mo, 25.05. 2:00 0.1 l/m2 in 6 Std. Regen
Ortszeit Niederschlagsmenge Niederschlagsart
Di, 26.05. 23:30 0.0 l/m2 in 1 Std. -
Di, 26.05. 23:20 keine Meldung -
Di, 26.05. 23:10 keine Meldung -
Di, 26.05. 23:00 0.0 l/m2 in 1 Std. -
Di, 26.05. 22:50 keine Meldung -
Di, 26.05. 22:40 keine Meldung -
Di, 26.05. 22:30 0.0 l/m2 in 1 Std. -
Di, 26.05. 22:00 0.0 l/m2 in 1 Std. -
Di, 26.05. 21:30 0.0 l/m2 in 1 Std. -
Di, 26.05. 21:00 0.0 l/m2 in 1 Std. -
Di, 26.05. 20:30 0.0 l/m2 in 1 Std. -
Di, 26.05. 20:00 0.0 l/m2 in 1 Std. -
Ortszeit Stärke Spitze Richtung
km/h Bft. km/h Grad Sektor
Di, 26.05. 20:00 6 1 15 110° O
Di, 26.05. 14:00 7 2 18 40° NO
Di, 26.05. 8:00 4 1 22 60° NO
Di, 26.05. 2:00 7 2 18 330° NW
Mo, 25.05. 20:00 14 3 25 360° N
Mo, 25.05. 14:00 18 3 36 360° N
Mo, 25.05. 8:00 28 4 52 320° NW
Mo, 25.05. 2:00 43 6 59 290° W
Ortszeit Stärke Spitze Richtung
km/h Bft. km/h Grad Sektor
Di, 26.05. 23:30 6 1 7 190° S
Di, 26.05. 23:20 6 1 - 190° S
Di, 26.05. 23:10 6 1 - 190° S
Di, 26.05. 23:00 4 1 7 190° S
Di, 26.05. 22:50 4 1 - 190° S
Di, 26.05. 22:40 6 1 - 200° S
Di, 26.05. 22:30 4 1 7 190° S
Di, 26.05. 22:00 7 2 11 130° SO
Di, 26.05. 21:30 6 1 7 130° SO
Di, 26.05. 21:00 4 1 7 130° SO
Di, 26.05. 20:30 6 1 7 100° O
Di, 26.05. 20:00 6 1 11 110° O
Ortszeit Untergrenze Bedeckung Gattung
total tief tief mittel hoch
Di, 26.05. 20:00 - 0/8 0/8 - - -
Di, 26.05. 14:00 210 m 4/8 4/8 - - -
Di, 26.05. 8:00 60 m 8/8 8/8 - - -
Di, 26.05. 2:00 - 0/8 0/8 - - -
Mo, 25.05. 20:00 - 0/8 0/8 - - -
Mo, 25.05. 14:00 930 m 3/8 3/8 - - -
Mo, 25.05. 8:00 450 m 8/8 8/8 - - -
Mo, 25.05. 2:00 480 m 8/8 8/8 - - -
Ortszeit Bedeckungsgrad in Achtel und Wolkenuntergrenze
Di, 26.05. 23:30 2(10500m)
Di, 26.05. 23:20 2(10500m)
Di, 26.05. 23:10 2(10500m)
Di, 26.05. 23:00 3(10500m)
Di, 26.05. 22:50 3(10500m)
Di, 26.05. 22:40 keine Wolken
Di, 26.05. 22:30 keine Wolken
Di, 26.05. 22:00 keine Wolken
Di, 26.05. 21:30 keine Wolken
Di, 26.05. 21:00 2(7800m)
Di, 26.05. 20:30 keine Wolken
Di, 26.05. 20:00 keine Wolken
Ortszeit Luftdruck NN (hPa) Tendenz (hPa in 3 Std.)
Di, 26.05. 20:00 1035 - 0,6
Di, 26.05. 14:00 1036 0,0
Di, 26.05. 8:00 1035 + 1,7
Di, 26.05. 2:00 1032 + 0,7
Mo, 25.05. 20:00 1030 + 1,4
Mo, 25.05. 14:00 1027 + 1,7
Mo, 25.05. 8:00 1023 + 1,4
Mo, 25.05. 2:00 1021 0,0
Ortszeit Luftdruck NN (hPa) Tendenz (hPa in 3 Std.)
Di, 26.05. 23:30 1035 - 0,3
Di, 26.05. 23:20 1035 keine Meldung
Di, 26.05. 23:10 1035 keine Meldung
Di, 26.05. 23:00 1035 - 0,2
Di, 26.05. 22:50 1035 keine Meldung
Di, 26.05. 22:40 1035 keine Meldung
Di, 26.05. 22:30 1035 0,0
Di, 26.05. 22:00 1035 - 0,1
Di, 26.05. 21:30 1035 0,0
Di, 26.05. 21:00 1035 - 0,4
Di, 26.05. 20:30 1035 - 0,5
Di, 26.05. 20:00 1035 - 0,6
Ortszeit Schneehöhe (cm)
Di, 26.05. 20:00 -
Di, 26.05. 14:00 -
Di, 26.05. 8:00 -
Di, 26.05. 2:00 -
Mo, 25.05. 20:00 -
Mo, 25.05. 14:00 -
Mo, 25.05. 8:00 -
Mo, 25.05. 2:00 -
Ortszeit Schneehöhe (cm)
Di, 26.05. 23:30 -
Di, 26.05. 23:20 -
Di, 26.05. 23:10 -
Di, 26.05. 23:00 -
Di, 26.05. 22:50 -
Di, 26.05. 22:40 -
Di, 26.05. 22:30 -
Di, 26.05. 22:00 -
Di, 26.05. 21:30 -
Di, 26.05. 21:00 -
Di, 26.05. 20:30 -
Di, 26.05. 20:00 -
Link zu dieser Seite / Seite empfehlen

Das Wetter in ...